createdAt,value
2023-02-11T00:01:30.380Z,-2.87
2023-02-11T00:04:00.540Z,-2.84
2023-02-11T00:06:32.626Z,-2.82
2023-02-11T00:09:01.626Z,-2.83
2023-02-11T00:11:31.035Z,-2.82
2023-02-11T00:14:00.959Z,-2.82
2023-02-11T00:16:31.460Z,-2.78
2023-02-11T00:19:00.928Z,-2.75
2023-02-11T00:21:29.837Z,-2.76
2023-02-11T00:24:02.100Z,-2.76
2023-02-11T00:26:32.662Z,-2.73
2023-02-11T00:29:02.183Z,-2.72
2023-02-11T00:31:35.513Z,-2.71
2023-02-11T00:34:06.645Z,-2.70
2023-02-11T00:36:35.200Z,-2.67
2023-02-11T00:39:05.425Z,-2.66
2023-02-11T00:41:34.217Z,-2.63
2023-02-11T00:44:02.774Z,-2.59
2023-02-11T00:46:31.507Z,-2.55
2023-02-11T00:49:00.027Z,-2.55
2023-02-11T00:51:29.731Z,-2.53
2023-02-11T00:53:58.204Z,-2.48
2023-02-11T00:56:28.523Z,-2.44
2023-02-11T00:58:57.504Z,-2.44
2023-02-11T01:01:26.241Z,-2.43
2023-02-11T01:03:54.850Z,-2.42
2023-02-11T01:06:25.006Z,-2.42
2023-02-11T01:08:53.609Z,-2.44
2023-02-11T01:11:22.874Z,-2.39
2023-02-11T01:13:52.850Z,-2.39
2023-02-11T01:16:22.363Z,-2.42
2023-02-11T01:18:51.038Z,-2.40
2023-02-11T01:21:19.670Z,-2.41
2023-02-11T01:23:48.291Z,-2.41
2023-02-11T01:26:16.737Z,-2.40
2023-02-11T01:28:45.366Z,-2.40
2023-02-11T01:31:16.207Z,-2.40
2023-02-11T01:33:44.735Z,-2.34
2023-02-11T01:36:14.156Z,-2.35
2023-02-11T01:38:44.625Z,-2.34
2023-02-11T01:41:16.004Z,-2.31
2023-02-11T01:43:47.000Z,-2.30
2023-02-11T01:46:37.363Z,-2.29
2023-02-11T01:49:11.057Z,-2.24
2023-02-11T01:51:42.927Z,-2.27
2023-02-11T01:54:32.175Z,-2.21
2023-02-11T01:57:21.318Z,-2.23
2023-02-11T01:59:58.124Z,-2.13
2023-02-11T02:02:34.133Z,-2.18
2023-02-11T02:05:25.036Z,-2.09
2023-02-11T02:07:59.757Z,-2.16
2023-02-11T02:10:30.184Z,-2.16
2023-02-11T02:12:58.902Z,-2.12
2023-02-11T02:15:30.933Z,-2.14
2023-02-11T02:18:09.739Z,-2.14
2023-02-11T02:21:22.632Z,-2.13
2023-02-11T02:24:21.734Z,-2.14
2023-02-11T02:27:18.308Z,-2.16
2023-02-11T02:30:24.758Z,-2.04
2023-02-11T02:33:23.426Z,-2.09
2023-02-11T02:35:59.635Z,-2.07
2023-02-11T02:38:33.242Z,-2.01
2023-02-11T02:41:07.705Z,-2.00
2023-02-11T02:43:38.669Z,-2.00
2023-02-11T02:46:15.610Z,-1.96
2023-02-11T02:48:46.550Z,-1.94
2023-02-11T02:51:47.516Z,-1.88
2023-02-11T02:54:46.110Z,-1.84
2023-02-11T02:57:29.265Z,-1.79
2023-02-11T03:00:11.466Z,-1.80
2023-02-11T03:02:46.567Z,-1.79
2023-02-11T03:05:23.206Z,-1.76
2023-02-11T03:08:00.097Z,-1.74
2023-02-11T03:10:31.725Z,-1.73
2023-02-11T03:13:01.117Z,-1.71
2023-02-11T03:15:33.816Z,-1.66
2023-02-11T03:18:04.954Z,-1.66
2023-02-11T03:20:37.821Z,-1.61
2023-02-11T03:23:12.751Z,-1.59
2023-02-11T03:25:47.195Z,-1.56
2023-02-11T03:28:23.827Z,-1.53
2023-02-11T03:30:58.867Z,-1.53
2023-02-11T03:33:32.385Z,-1.48
2023-02-11T03:36:08.087Z,-1.49
2023-02-11T03:38:43.393Z,-1.45
2023-02-11T03:41:13.995Z,-1.45
2023-02-11T03:43:46.003Z,-1.40
2023-02-11T03:46:19.190Z,-1.39
2023-02-11T03:48:53.661Z,-1.32
2023-02-11T03:51:26.851Z,-1.28
2023-02-11T03:53:59.307Z,-1.24
2023-02-11T03:56:31.826Z,-1.19
2023-02-11T03:59:00.441Z,-1.22
2023-02-11T04:01:28.928Z,-1.18
2023-02-11T04:03:57.525Z,-1.15
2023-02-11T04:06:27.528Z,-1.18
2023-02-11T04:08:56.476Z,-1.15
2023-02-11T04:11:24.950Z,-1.10
2023-02-11T04:13:53.411Z,-1.12
2023-02-11T04:16:21.945Z,-1.09
2023-02-11T04:18:50.798Z,-1.08
2023-02-11T04:21:19.333Z,-1.06
2023-02-11T04:23:49.292Z,-1.06
2023-02-11T04:26:17.910Z,-1.06
2023-02-11T04:28:46.508Z,-1.09
2023-02-11T04:31:15.161Z,-1.06
2023-02-11T04:33:43.673Z,-1.03
2023-02-11T04:36:12.215Z,-1.04
2023-02-11T04:38:40.716Z,-1.03
2023-02-11T04:41:10.658Z,-1.03
2023-02-11T04:43:39.098Z,-1.00
2023-02-11T04:46:07.742Z,-0.99
2023-02-11T04:48:36.260Z,-1.01
2023-02-11T04:51:05.365Z,-1.00
2023-02-11T04:53:33.799Z,-0.96
2023-02-11T04:56:02.468Z,-0.97
2023-02-11T04:58:32.640Z,-0.97
2023-02-11T05:01:08.232Z,-0.99
2023-02-11T05:03:37.231Z,-0.95
2023-02-11T05:06:06.597Z,-0.95
2023-02-11T05:08:35.234Z,-0.96
2023-02-11T05:11:03.714Z,-0.97
2023-02-11T05:13:33.720Z,-0.94
2023-02-11T05:16:02.262Z,-0.90
2023-02-11T05:18:30.791Z,-0.91
2023-02-11T05:20:59.222Z,-0.89
2023-02-11T05:23:27.700Z,-0.84
2023-02-11T05:25:56.141Z,-0.87
2023-02-11T05:28:24.835Z,-0.89
2023-02-11T05:30:54.884Z,-0.89
2023-02-11T05:33:23.422Z,-0.88
2023-02-11T05:35:52.358Z,-0.91
2023-02-11T05:38:20.917Z,-0.92
2023-02-11T05:40:49.330Z,-0.90
2023-02-11T05:43:17.839Z,-0.92
2023-02-11T05:45:46.315Z,-0.92
2023-02-11T05:48:16.264Z,-0.93
2023-02-11T05:50:44.943Z,-0.94
2023-02-11T05:53:13.809Z,-0.90
2023-02-11T05:55:43.459Z,-0.89
2023-02-11T05:58:12.129Z,-0.90
2023-02-11T06:00:40.924Z,-0.90
2023-02-11T06:03:09.374Z,-0.89
2023-02-11T06:05:39.406Z,-0.90
2023-02-11T06:08:07.904Z,-0.88
2023-02-11T06:10:36.317Z,-0.90
2023-02-11T06:13:04.886Z,-0.89
2023-02-11T06:15:33.353Z,-0.90
2023-02-11T06:18:01.793Z,-0.92
2023-02-11T06:20:30.267Z,-0.91
2023-02-11T06:23:00.048Z,-0.92
2023-02-11T06:25:28.530Z,-0.91
2023-02-11T06:27:57.057Z,-0.92
2023-02-11T06:30:25.487Z,-0.93
2023-02-11T06:32:55.124Z,-0.90
2023-02-11T06:35:23.667Z,-0.89
2023-02-11T06:37:54.122Z,-0.92
2023-02-11T06:40:24.148Z,-0.92
2023-02-11T06:42:52.588Z,-0.91
2023-02-11T06:45:21.088Z,-0.91
2023-02-11T06:47:49.524Z,-0.92
2023-02-11T06:50:18.100Z,-0.90
2023-02-11T06:52:46.509Z,-0.91
2023-02-11T06:55:15.131Z,-0.91
2023-02-11T06:57:45.251Z,-0.89
2023-02-11T07:00:15.330Z,-0.88
2023-02-11T07:02:44.055Z,-0.87
2023-02-11T07:05:13.003Z,-0.88
2023-02-11T07:07:41.542Z,-0.87
2023-02-11T07:10:10.755Z,-0.87
2023-02-11T07:12:39.319Z,-0.89
2023-02-11T07:15:09.956Z,-0.89
2023-02-11T07:17:38.663Z,-0.87
2023-02-11T07:20:07.838Z,-0.88
2023-02-11T07:22:36.322Z,-0.90
2023-02-11T07:25:05.494Z,-0.89
2023-02-11T07:27:33.917Z,-0.89
2023-02-11T07:30:03.410Z,-0.90
2023-02-11T07:32:34.934Z,-0.88
2023-02-11T07:35:04.148Z,-0.91
2023-02-11T07:37:35.189Z,-0.91
2023-02-11T07:40:04.137Z,-0.91
2023-02-11T07:42:32.834Z,-0.89
2023-02-11T07:45:01.375Z,-0.88
2023-02-11T07:47:29.908Z,-0.89
2023-02-11T07:49:59.854Z,-0.88
2023-02-11T07:52:31.534Z,-0.88
2023-02-11T07:55:00.143Z,-0.89
2023-02-11T07:57:28.710Z,-0.87
2023-02-11T07:59:57.137Z,-0.87
2023-02-11T08:02:25.775Z,-0.85
2023-02-11T08:04:54.563Z,-0.86
2023-02-11T08:07:25.029Z,-0.87
2023-02-11T08:09:54.615Z,-0.87
2023-02-11T08:12:23.227Z,-0.84
2023-02-11T08:14:51.760Z,-0.84
2023-02-11T08:17:20.305Z,-0.85
2023-02-11T08:19:48.754Z,-0.87
2023-02-11T08:22:17.247Z,-0.85
2023-02-11T08:24:47.488Z,-0.85
2023-02-11T08:27:15.966Z,-0.83
2023-02-11T08:29:45.268Z,-0.82
2023-02-11T08:32:13.953Z,-0.80
2023-02-11T08:34:42.624Z,-0.81
2023-02-11T08:37:11.040Z,-0.83
2023-02-11T08:39:39.801Z,-0.81
2023-02-11T08:42:09.697Z,-0.80
2023-02-11T08:44:38.179Z,-0.79
2023-02-11T08:47:06.860Z,-0.76
2023-02-11T08:49:35.508Z,-0.78
2023-02-11T08:52:04.414Z,-0.79
2023-02-11T08:54:33.462Z,-0.77
2023-02-11T08:57:02.679Z,-0.78
2023-02-11T08:59:32.880Z,-0.77
2023-02-11T09:02:01.472Z,-0.76
2023-02-11T09:04:30.044Z,-0.75
2023-02-11T09:06:58.806Z,-0.74
2023-02-11T09:09:27.412Z,-0.72
2023-02-11T09:11:57.591Z,-0.73
2023-02-11T09:14:26.453Z,-0.68
2023-02-11T09:16:56.429Z,-0.63
2023-02-11T09:19:25.209Z,-0.61
2023-02-11T09:21:53.704Z,-0.60
2023-02-11T09:24:22.256Z,-0.59
2023-02-11T09:26:50.976Z,-0.57
2023-02-11T09:29:19.551Z,-0.56
2023-02-11T09:31:48.132Z,-0.54
2023-02-11T09:34:18.370Z,-0.51
2023-02-11T09:36:46.881Z,-0.49
2023-02-11T09:39:18.500Z,-0.44
2023-02-11T09:42:08.644Z,-0.37
2023-02-11T09:44:38.879Z,-0.33
2023-02-11T09:47:14.623Z,-0.26
2023-02-11T09:49:51.135Z,-0.22
2023-02-11T09:52:31.474Z,-0.16
2023-02-11T09:55:01.812Z,-0.06
2023-02-11T09:57:35.177Z,0.00
2023-02-11T10:00:05.073Z,0.01
2023-02-11T10:02:55.909Z,0.01
2023-02-11T10:05:39.961Z,0.02
2023-02-11T10:08:15.908Z,0.08
2023-02-11T10:10:53.605Z,0.10
2023-02-11T10:13:37.601Z,0.11
2023-02-11T10:16:15.368Z,0.26
2023-02-11T10:19:09.936Z,0.35
2023-02-11T10:21:46.921Z,0.41
2023-02-11T10:24:18.109Z,0.49
2023-02-11T10:26:47.058Z,0.45
2023-02-11T10:29:27.695Z,0.51
2023-02-11T10:31:58.272Z,0.61
2023-02-11T10:34:26.931Z,0.63
2023-02-11T10:36:56.927Z,0.65
2023-02-11T10:39:28.439Z,0.66
2023-02-11T10:42:00.832Z,0.68
2023-02-11T10:44:33.346Z,0.68
2023-02-11T10:47:06.640Z,0.61
2023-02-11T10:49:38.630Z,0.60
2023-02-11T10:52:26.436Z,0.58
2023-02-11T10:55:07.034Z,0.51
2023-02-11T10:57:38.718Z,0.54
2023-02-11T11:00:23.089Z,0.38
2023-02-11T11:02:57.843Z,0.31
2023-02-11T11:05:31.854Z,0.32
2023-02-11T11:08:09.622Z,0.36
2023-02-11T11:10:44.794Z,0.36
2023-02-11T11:13:39.241Z,0.36
2023-02-11T11:16:24.356Z,0.42
2023-02-11T11:19:00.978Z,0.41
2023-02-11T11:21:41.176Z,0.36
2023-02-11T11:24:29.757Z,0.33
2023-02-11T11:27:01.923Z,0.35
2023-02-11T11:29:36.578Z,0.35
2023-02-11T11:32:12.731Z,0.38
2023-02-11T11:34:44.293Z,0.36
2023-02-11T11:37:15.572Z,0.33
2023-02-11T11:39:50.393Z,0.31
2023-02-11T11:42:28.506Z,0.25
2023-02-11T11:45:00.856Z,0.21
2023-02-11T11:47:41.584Z,0.16
2023-02-11T11:50:32.513Z,0.16
2023-02-11T11:53:07.248Z,0.20
2023-02-11T11:55:43.166Z,0.23
2023-02-11T11:58:19.026Z,0.23
2023-02-11T12:01:00.442Z,0.18
2023-02-11T12:04:16.003Z,0.16
2023-02-11T12:06:54.274Z,0.19
2023-02-11T12:09:32.945Z,0.24
2023-02-11T12:12:32.639Z,0.38
2023-02-11T12:15:26.603Z,0.37
2023-02-11T12:18:18.862Z,0.23
2023-02-11T12:21:11.564Z,0.19
2023-02-11T12:23:55.881Z,0.18
2023-02-11T12:26:32.665Z,0.02
2023-02-11T12:29:17.546Z,-0.05
2023-02-11T12:32:14.044Z,-0.04
2023-02-11T12:35:11.364Z,-0.18
2023-02-11T12:37:58.221Z,-0.17
2023-02-11T12:40:39.943Z,-0.26
2023-02-11T12:43:17.625Z,-0.33
2023-02-11T12:46:10.905Z,-0.29
2023-02-11T12:49:06.501Z,-0.36
2023-02-11T12:51:50.657Z,-0.54
2023-02-11T12:54:27.604Z,-0.63
2023-02-11T12:57:03.868Z,-0.67
2023-02-11T12:59:56.749Z,-0.73
2023-02-11T13:02:36.931Z,-0.71
2023-02-11T13:05:23.464Z,-0.80
2023-02-11T13:07:54.960Z,-0.85
2023-02-11T13:10:32.967Z,-0.91
2023-02-11T13:13:18.988Z,-0.97
2023-02-11T13:15:53.357Z,-1.04
2023-02-11T13:18:37.207Z,-1.18
2023-02-11T13:21:23.831Z,-1.09
2023-02-11T13:24:01.029Z,-1.21
2023-02-11T13:26:36.562Z,-1.22
2023-02-11T13:29:17.718Z,-1.24
2023-02-11T13:31:55.045Z,-1.19
2023-02-11T13:34:49.681Z,-1.26
2023-02-11T13:37:24.021Z,-1.24
2023-02-11T13:40:00.991Z,-1.39
2023-02-11T13:42:31.259Z,-1.38
2023-02-11T13:45:00.247Z,-1.38
2023-02-11T13:47:33.009Z,-1.41
2023-02-11T13:50:07.689Z,-1.43
2023-02-11T13:52:39.420Z,-1.40
2023-02-11T13:55:21.697Z,-1.43
2023-02-11T13:58:36.713Z,-1.39
2023-02-11T14:01:05.800Z,-1.42
2023-02-11T14:03:56.738Z,-1.49
2023-02-11T14:07:02.004Z,-1.45
2023-02-11T14:09:41.599Z,-1.50
2023-02-11T14:12:31.975Z,-1.49
2023-02-11T14:15:22.995Z,-1.45
2023-02-11T14:17:52.636Z,-1.52
2023-02-11T14:20:44.956Z,-1.53
2023-02-11T14:23:31.275Z,-1.49
2023-02-11T14:26:20.080Z,-1.56
2023-02-11T14:28:52.550Z,-1.45
2023-02-11T14:31:25.675Z,-1.57
2023-02-11T14:34:18.938Z,-1.61
2023-02-11T14:37:11.680Z,-1.59
2023-02-11T14:40:11.809Z,-1.64
2023-02-11T14:42:40.600Z,-1.72
2023-02-11T14:45:12.581Z,-1.76
2023-02-11T14:47:46.682Z,-1.80
2023-02-11T14:50:20.097Z,-1.81
2023-02-11T14:52:49.052Z,-1.90
2023-02-11T14:55:30.482Z,-1.91
2023-02-11T14:58:17.511Z,-2.03
2023-02-11T15:00:51.523Z,-2.07
2023-02-11T15:03:35.654Z,-2.17
2023-02-11T15:06:08.569Z,-2.20
2023-02-11T15:08:39.656Z,-2.26
2023-02-11T15:11:12.061Z,-2.23
2023-02-11T15:13:47.637Z,-2.31
2023-02-11T15:16:19.573Z,-2.24
2023-02-11T15:18:52.052Z,-2.33
2023-02-11T15:21:25.807Z,-2.34
2023-02-11T15:23:58.952Z,-2.42
2023-02-11T15:26:29.793Z,-2.45
2023-02-11T15:28:58.330Z,-2.45
2023-02-11T15:31:28.954Z,-2.41
2023-02-11T15:33:57.709Z,-2.42
2023-02-11T15:36:34.510Z,-2.50
2023-02-11T15:39:35.654Z,-2.48
2023-02-11T15:42:22.061Z,-2.50
2023-02-11T15:44:56.546Z,-2.58
2023-02-11T15:47:31.209Z,-2.51
2023-02-11T15:50:00.038Z,-2.63
2023-02-11T15:52:29.851Z,-2.68
2023-02-11T15:55:01.917Z,-2.72
2023-02-11T15:57:32.010Z,-2.75
2023-02-11T16:00:04.589Z,-2.68
2023-02-11T16:02:45.285Z,-2.76
2023-02-11T16:05:28.072Z,-2.75
2023-02-11T16:07:57.129Z,-2.72
2023-02-11T16:10:28.973Z,-2.66
2023-02-11T16:13:05.111Z,-2.70
2023-02-11T16:15:52.654Z,-2.71
2023-02-11T16:18:37.852Z,-2.72
2023-02-11T16:21:14.608Z,-2.77
2023-02-11T16:23:43.628Z,-2.74
2023-02-11T16:26:22.130Z,-2.79
2023-02-11T16:28:52.809Z,-2.83
2023-02-11T16:31:21.627Z,-2.82
2023-02-11T16:33:50.231Z,-2.77
2023-02-11T16:36:18.657Z,-2.75
2023-02-11T16:38:47.130Z,-2.97
2023-02-11T16:41:15.550Z,-2.94
2023-02-11T16:43:44.050Z,-3.08
2023-02-11T16:46:16.468Z,-3.04
2023-02-11T16:48:45.252Z,-3.03
2023-02-11T16:51:13.855Z,-3.12
2023-02-11T16:53:42.430Z,-3.14
2023-02-11T16:56:16.962Z,-3.15
2023-02-11T16:58:46.101Z,-3.18
2023-02-11T17:01:16.112Z,-3.15
2023-02-11T17:03:45.742Z,-3.28
2023-02-11T17:06:15.025Z,-3.44
2023-02-11T17:08:43.630Z,-3.40
2023-02-11T17:11:16.944Z,-3.51
2023-02-11T17:13:45.654Z,-3.43
2023-02-11T17:16:20.845Z,-3.52
2023-02-11T17:18:49.892Z,-3.62
2023-02-11T17:21:19.084Z,-3.64
2023-02-11T17:23:47.654Z,-3.70
2023-02-11T17:26:16.305Z,-3.74
2023-02-11T17:28:44.768Z,-3.52
2023-02-11T17:31:13.474Z,-3.56
2023-02-11T17:33:43.613Z,-3.50
2023-02-11T17:36:12.644Z,-3.41
2023-02-11T17:38:41.142Z,-3.41
2023-02-11T17:41:09.708Z,-3.37
2023-02-11T17:43:38.225Z,-3.42
2023-02-11T17:46:08.843Z,-3.41
2023-02-11T17:48:38.882Z,-3.42
2023-02-11T17:51:23.603Z,-3.43
2023-02-11T17:53:52.203Z,-3.43
2023-02-11T17:56:20.741Z,-3.39
2023-02-11T17:58:49.404Z,-3.50
2023-02-11T18:01:18.344Z,-3.48
2023-02-11T18:03:47.066Z,-3.46
2023-02-11T18:06:17.055Z,-3.49
2023-02-11T18:08:45.569Z,-3.52
2023-02-11T18:11:15.249Z,-3.44
2023-02-11T18:13:44.088Z,-3.53
2023-02-11T18:16:16.070Z,-3.53
2023-02-11T18:18:45.074Z,-3.54
2023-02-11T18:21:17.406Z,-3.53
2023-02-11T18:23:46.587Z,-3.47
2023-02-11T18:26:17.922Z,-3.49
2023-02-11T18:28:46.773Z,-3.57
2023-02-11T18:31:16.141Z,-3.61
2023-02-11T18:33:44.767Z,-3.62
2023-02-11T18:36:15.448Z,-3.59
2023-02-11T18:38:45.498Z,-3.61
2023-02-11T18:41:14.490Z,-3.58
2023-02-11T18:43:43.573Z,-3.62
2023-02-11T18:46:14.012Z,-3.67
2023-02-11T18:48:44.996Z,-3.71
2023-02-11T18:51:16.028Z,-3.74
2023-02-11T18:53:46.118Z,-3.73
2023-02-11T18:56:20.437Z,-3.80
2023-02-11T18:58:49.239Z,-3.76
2023-02-11T19:01:19.709Z,-3.73
2023-02-11T19:03:48.552Z,-3.81
2023-02-11T19:06:18.458Z,-3.85
2023-02-11T19:08:48.671Z,-3.81
2023-02-11T19:11:18.969Z,-3.79
2023-02-11T19:13:48.348Z,-3.80
2023-02-11T19:16:20.109Z,-3.77
2023-02-11T19:18:48.574Z,-3.79
2023-02-11T19:21:20.788Z,-3.85
2023-02-11T19:23:50.709Z,-3.91
2023-02-11T19:26:19.551Z,-3.82
2023-02-11T19:28:48.209Z,-3.81
2023-02-11T19:31:16.774Z,-3.86
2023-02-11T19:33:45.377Z,-3.93
2023-02-11T19:36:16.587Z,-3.94
2023-02-11T19:38:45.909Z,-3.82
2023-02-11T19:41:19.312Z,-3.81
2023-02-11T19:43:52.913Z,-3.84
2023-02-11T19:46:22.062Z,-3.92
2023-02-11T19:48:50.785Z,-3.92
2023-02-11T19:51:19.929Z,-3.88
2023-02-11T19:53:48.961Z,-3.91
2023-02-11T19:56:20.842Z,-3.90
2023-02-11T19:58:49.631Z,-3.85
2023-02-11T20:01:20.153Z,-3.85
2023-02-11T20:03:51.188Z,-3.90
2023-02-11T20:06:23.513Z,-3.90
2023-02-11T20:08:58.460Z,-3.97
2023-02-11T20:11:30.586Z,-3.97
2023-02-11T20:13:59.569Z,-4.07
2023-02-11T20:16:46.264Z,-4.11
2023-02-11T20:19:18.364Z,-4.12
2023-02-11T20:21:48.164Z,-4.16
2023-02-11T20:24:17.834Z,-4.13
2023-02-11T20:26:48.821Z,-4.26
2023-02-11T20:29:17.733Z,-4.16
2023-02-11T20:31:46.546Z,-4.25
2023-02-11T20:34:17.807Z,-4.27
2023-02-11T20:36:52.254Z,-4.25
2023-02-11T20:39:22.678Z,-4.36
2023-02-11T20:41:54.070Z,-4.51
2023-02-11T20:44:23.184Z,-4.45
2023-02-11T20:46:54.553Z,-4.68
2023-02-11T20:49:24.721Z,-4.65
2023-02-11T20:51:54.114Z,-4.63
2023-02-11T20:54:23.733Z,-4.74
2023-02-11T20:56:55.569Z,-4.82
2023-02-11T20:59:24.149Z,-4.86
2023-02-11T21:01:55.579Z,-4.90
2023-02-11T21:04:26.869Z,-4.75
2023-02-11T21:06:56.263Z,-4.97
2023-02-11T21:09:27.465Z,-4.84
2023-02-11T21:11:57.654Z,-4.82
2023-02-11T21:14:27.455Z,-4.86
2023-02-11T21:16:56.200Z,-4.85
2023-02-11T21:19:24.677Z,-4.78
2023-02-11T21:21:53.186Z,-4.85
2023-02-11T21:24:21.689Z,-4.96
2023-02-11T21:26:50.169Z,-4.98
2023-02-11T21:29:20.060Z,-4.95
2023-02-11T21:31:48.641Z,-4.92
2023-02-11T21:34:17.360Z,-4.86
2023-02-11T21:36:46.046Z,-5.02
2023-02-11T21:39:15.037Z,-5.13
2023-02-11T21:41:43.529Z,-5.18
2023-02-11T21:44:12.011Z,-5.02
2023-02-11T21:46:42.896Z,-4.94
2023-02-11T21:49:13.945Z,-5.16
2023-02-11T21:51:42.793Z,-5.01
2023-02-11T21:54:13.188Z,-4.94
2023-02-11T21:56:41.883Z,-4.90
2023-02-11T21:59:15.162Z,-5.04
2023-02-11T22:01:47.290Z,-5.00
2023-02-11T22:04:17.318Z,-4.93
2023-02-11T22:06:45.990Z,-4.83
2023-02-11T22:09:15.189Z,-4.83
2023-02-11T22:11:44.082Z,-4.90
2023-02-11T22:14:13.443Z,-4.85
2023-02-11T22:16:42.642Z,-4.79
2023-02-11T22:19:12.846Z,-4.72
2023-02-11T22:21:43.691Z,-4.63
2023-02-11T22:24:12.644Z,-4.66
2023-02-11T22:26:41.901Z,-4.67
2023-02-11T22:29:12.679Z,-4.64
2023-02-11T22:31:41.480Z,-4.68
2023-02-11T22:34:10.739Z,-4.89
2023-02-11T22:36:42.697Z,-4.87
2023-02-11T22:39:14.397Z,-4.88
2023-02-11T22:41:43.598Z,-4.90
2023-02-11T22:44:12.705Z,-5.07
2023-02-11T22:46:42.812Z,-5.09
2023-02-11T22:49:13.975Z,-5.07
2023-02-11T22:51:44.537Z,-5.08
2023-02-11T22:54:15.557Z,-5.29
2023-02-11T22:56:45.141Z,-5.24
2023-02-11T22:59:15.680Z,-5.34
2023-02-11T23:01:45.414Z,-5.37
2023-02-11T23:04:15.972Z,-5.39
2023-02-11T23:06:49.257Z,-5.46
2023-02-11T23:09:18.576Z,-5.49
2023-02-11T23:11:48.923Z,-5.44
2023-02-11T23:14:17.605Z,-5.63
2023-02-11T23:16:46.078Z,-5.52
2023-02-11T23:19:14.767Z,-5.59
2023-02-11T23:21:43.291Z,-5.89
2023-02-11T23:24:15.212Z,-6.15
2023-02-11T23:26:45.020Z,-6.42
2023-02-11T23:29:13.968Z,-6.22
2023-02-11T23:31:46.227Z,-6.56
2023-02-11T23:34:17.385Z,-6.36
2023-02-11T23:36:45.664Z,-6.51
2023-02-11T23:39:17.508Z,-6.62
2023-02-11T23:41:46.312Z,-6.69
2023-02-11T23:44:14.910Z,-6.59
2023-02-11T23:46:43.535Z,-6.81
2023-02-11T23:49:12.036Z,-6.79
2023-02-11T23:51:40.608Z,-7.02
2023-02-11T23:54:09.068Z,-7.25
2023-02-11T23:56:39.282Z,-7.14
2023-02-11T23:59:07.747Z,-7.34
